sensor_id;sensor_type;location;lat;lon;timestamp;P1;durP1;ratioP1;P2;durP2;ratioP2
63087;SDS011;49173;43.164;27.786;2023-09-30T00:00:00;11.68;;;5.57;;
63087;SDS011;49173;43.164;27.786;2023-09-30T00:02:27;11.38;;;5.43;;
63087;SDS011;49173;43.164;27.786;2023-09-30T00:04:53;13.07;;;5.55;;
63087;SDS011;49173;43.164;27.786;2023-09-30T00:07:19;12.98;;;6.20;;
63087;SDS011;49173;43.164;27.786;2023-09-30T00:09:45;14.93;;;6.22;;
63087;SDS011;49173;43.164;27.786;2023-09-30T00:12:10;10.30;;;5.70;;
63087;SDS011;49173;43.164;27.786;2023-09-30T00:14:36;12.73;;;6.50;;
63087;SDS011;49173;43.164;27.786;2023-09-30T00:17:02;12.77;;;6.03;;
63087;SDS011;49173;43.164;27.786;2023-09-30T00:19:28;13.25;;;6.18;;
63087;SDS011;49173;43.164;27.786;2023-09-30T00:21:55;13.43;;;6.22;;
63087;SDS011;49173;43.164;27.786;2023-09-30T00:24:20;17.40;;;5.80;;
63087;SDS011;49173;43.164;27.786;2023-09-30T00:26:46;12.38;;;6.18;;
63087;SDS011;49173;43.164;27.786;2023-09-30T00:29:12;16.95;;;5.70;;
63087;SDS011;49173;43.164;27.786;2023-09-30T00:31:38;11.75;;;6.05;;
63087;SDS011;49173;43.164;27.786;2023-09-30T00:34:04;13.60;;;6.60;;
63087;SDS011;49173;43.164;27.786;2023-09-30T00:36:29;10.75;;;5.82;;
63087;SDS011;49173;43.164;27.786;2023-09-30T00:38:56;10.43;;;5.90;;
63087;SDS011;49173;43.164;27.786;2023-09-30T00:41:22;9.80;;;5.93;;
63087;SDS011;49173;43.164;27.786;2023-09-30T00:43:47;8.52;;;5.60;;
63087;SDS011;49173;43.164;27.786;2023-09-30T00:46:32;10.95;;;5.63;;
63087;SDS011;49173;43.164;27.786;2023-09-30T00:48:59;10.00;;;5.28;;
63087;SDS011;49173;43.164;27.786;2023-09-30T00:51:26;11.40;;;5.50;;
63087;SDS011;49173;43.164;27.786;2023-09-30T00:53:53;15.82;;;5.88;;
63087;SDS011;49173;43.164;27.786;2023-09-30T00:56:23;15.73;;;5.50;;
63087;SDS011;49173;43.164;27.786;2023-09-30T00:58:50;10.30;;;5.75;;
63087;SDS011;49173;43.164;27.786;2023-09-30T01:01:18;9.38;;;5.85;;
63087;SDS011;49173;43.164;27.786;2023-09-30T01:03:48;11.18;;;5.88;;
63087;SDS011;49173;43.164;27.786;2023-09-30T01:06:14;13.77;;;5.90;;
63087;SDS011;49173;43.164;27.786;2023-09-30T01:08:40;11.38;;;5.63;;
63087;SDS011;49173;43.164;27.786;2023-09-30T01:11:06;14.02;;;6.05;;
63087;SDS011;49173;43.164;27.786;2023-09-30T01:13:33;9.18;;;5.82;;
63087;SDS011;49173;43.164;27.786;2023-09-30T01:16:03;12.68;;;5.40;;
63087;SDS011;49173;43.164;27.786;2023-09-30T01:18:37;9.77;;;5.10;;
63087;SDS011;49173;43.164;27.786;2023-09-30T01:21:04;8.63;;;5.20;;
63087;SDS011;49173;43.164;27.786;2023-09-30T01:23:32;12.93;;;5.82;;
63087;SDS011;49173;43.164;27.786;2023-09-30T01:26:08;15.48;;;6.45;;
63087;SDS011;49173;43.164;27.786;2023-09-30T01:28:39;16.98;;;6.05;;
63087;SDS011;49173;43.164;27.786;2023-09-30T01:31:06;16.42;;;6.32;;
63087;SDS011;49173;43.164;27.786;2023-09-30T01:33:32;11.70;;;6.05;;
63087;SDS011;49173;43.164;27.786;2023-09-30T01:36:00;14.38;;;5.60;;
63087;SDS011;49173;43.164;27.786;2023-09-30T01:38:26;13.63;;;5.80;;
63087;SDS011;49173;43.164;27.786;2023-09-30T01:40:52;13.23;;;5.70;;
63087;SDS011;49173;43.164;27.786;2023-09-30T01:43:19;9.43;;;5.50;;
63087;SDS011;49173;43.164;27.786;2023-09-30T01:45:45;12.98;;;5.88;;
63087;SDS011;49173;43.164;27.786;2023-09-30T01:48:11;13.13;;;5.55;;
63087;SDS011;49173;43.164;27.786;2023-09-30T01:50:37;11.80;;;5.80;;
63087;SDS011;49173;43.164;27.786;2023-09-30T01:53:04;10.02;;;5.47;;
63087;SDS011;49173;43.164;27.786;2023-09-30T01:55:32;13.27;;;5.40;;
63087;SDS011;49173;43.164;27.786;2023-09-30T01:57:58;9.15;;;5.90;;
63087;SDS011;49173;43.164;27.786;2023-09-30T02:00:24;8.63;;;5.25;;
63087;SDS011;49173;43.164;27.786;2023-09-30T02:02:50;13.65;;;5.15;;
63087;SDS011;49173;43.164;27.786;2023-09-30T02:05:16;9.30;;;5.22;;
63087;SDS011;49173;43.164;27.786;2023-09-30T02:07:41;10.05;;;5.63;;
63087;SDS011;49173;43.164;27.786;2023-09-30T02:10:08;8.15;;;5.45;;
63087;SDS011;49173;43.164;27.786;2023-09-30T02:12:35;9.88;;;5.72;;
63087;SDS011;49173;43.164;27.786;2023-09-30T02:15:03;13.10;;;5.40;;
63087;SDS011;49173;43.164;27.786;2023-09-30T02:17:29;12.80;;;5.43;;
63087;SDS011;49173;43.164;27.786;2023-09-30T02:19:55;8.75;;;5.18;;
63087;SDS011;49173;43.164;27.786;2023-09-30T02:22:20;13.23;;;5.35;;
63087;SDS011;49173;43.164;27.786;2023-09-30T02:24:46;12.32;;;4.75;;
63087;SDS011;49173;43.164;27.786;2023-09-30T02:27:13;12.93;;;4.57;;
63087;SDS011;49173;43.164;27.786;2023-09-30T02:29:39;10.10;;;5.32;;
63087;SDS011;49173;43.164;27.786;2023-09-30T02:32:05;10.57;;;5.38;;
63087;SDS011;49173;43.164;27.786;2023-09-30T02:34:30;9.98;;;4.78;;
63087;SDS011;49173;43.164;27.786;2023-09-30T02:36:56;11.85;;;4.38;;
63087;SDS011;49173;43.164;27.786;2023-09-30T02:39:22;14.52;;;4.70;;
63087;SDS011;49173;43.164;27.786;2023-09-30T02:41:48;9.77;;;4.68;;
63087;SDS011;49173;43.164;27.786;2023-09-30T02:44:15;17.45;;;4.78;;
63087;SDS011;49173;43.164;27.786;2023-09-30T02:46:41;12.82;;;4.80;;
63087;SDS011;49173;43.164;27.786;2023-09-30T02:49:07;9.95;;;4.43;;
63087;SDS011;49173;43.164;27.786;2023-09-30T02:51:33;9.23;;;4.28;;
63087;SDS011;49173;43.164;27.786;2023-09-30T02:53:59;12.43;;;4.30;;
63087;SDS011;49173;43.164;27.786;2023-09-30T02:56:24;11.20;;;4.88;;
63087;SDS011;49173;43.164;27.786;2023-09-30T02:58:52;9.57;;;4.45;;
63087;SDS011;49173;43.164;27.786;2023-09-30T03:01:18;12.68;;;4.30;;
63087;SDS011;49173;43.164;27.786;2023-09-30T03:03:44;9.95;;;4.45;;
63087;SDS011;49173;43.164;27.786;2023-09-30T03:06:10;7.72;;;4.15;;
63087;SDS011;49173;43.164;27.786;2023-09-30T03:08:36;7.38;;;4.55;;
63087;SDS011;49173;43.164;27.786;2023-09-30T03:11:02;12.15;;;4.45;;
63087;SDS011;49173;43.164;27.786;2023-09-30T03:13:29;8.45;;;4.32;;
63087;SDS011;49173;43.164;27.786;2023-09-30T03:15:55;11.75;;;4.38;;
63087;SDS011;49173;43.164;27.786;2023-09-30T03:18:22;8.00;;;4.03;;
63087;SDS011;49173;43.164;27.786;2023-09-30T03:20:52;7.20;;;4.13;;
63087;SDS011;49173;43.164;27.786;2023-09-30T03:23:28;8.02;;;3.88;;
63087;SDS011;49173;43.164;27.786;2023-09-30T03:25:59;8.18;;;3.97;;
63087;SDS011;49173;43.164;27.786;2023-09-30T03:30:51;9.82;;;4.65;;
63087;SDS011;49173;43.164;27.786;2023-09-30T03:33:17;13.45;;;4.13;;
63087;SDS011;49173;43.164;27.786;2023-09-30T03:35:43;11.80;;;4.80;;
63087;SDS011;49173;43.164;27.786;2023-09-30T03:38:10;9.95;;;4.15;;
63087;SDS011;49173;43.164;27.786;2023-09-30T03:40:38;13.02;;;4.53;;
63087;SDS011;49173;43.164;27.786;2023-09-30T03:43:15;18.83;;;3.65;;
63087;SDS011;49173;43.164;27.786;2023-09-30T03:45:41;10.95;;;4.32;;
63087;SDS011;49173;43.164;27.786;2023-09-30T03:48:07;9.30;;;4.57;;
63087;SDS011;49173;43.164;27.786;2023-09-30T03:50:35;10.68;;;3.78;;
63087;SDS011;49173;43.164;27.786;2023-09-30T03:53:01;9.02;;;3.72;;
63087;SDS011;49173;43.164;27.786;2023-09-30T03:55:28;11.80;;;4.20;;
63087;SDS011;49173;43.164;27.786;2023-09-30T03:57:55;7.53;;;3.95;;
63087;SDS011;49173;43.164;27.786;2023-09-30T04:00:21;10.75;;;3.85;;
63087;SDS011;49173;43.164;27.786;2023-09-30T04:02:47;11.35;;;3.50;;
63087;SDS011;49173;43.164;27.786;2023-09-30T04:05:15;12.90;;;3.80;;
63087;SDS011;49173;43.164;27.786;2023-09-30T04:07:42;10.10;;;3.60;;
63087;SDS011;49173;43.164;27.786;2023-09-30T04:10:09;13.35;;;3.80;;
63087;SDS011;49173;43.164;27.786;2023-09-30T04:12:35;8.73;;;3.60;;
63087;SDS011;49173;43.164;27.786;2023-09-30T04:15:01;11.43;;;3.92;;
63087;SDS011;49173;43.164;27.786;2023-09-30T04:17:28;9.40;;;3.88;;
63087;SDS011;49173;43.164;27.786;2023-09-30T04:19:54;11.88;;;4.45;;
63087;SDS011;49173;43.164;27.786;2023-09-30T04:22:20;10.18;;;4.30;;
63087;SDS011;49173;43.164;27.786;2023-09-30T04:24:50;12.80;;;3.88;;
63087;SDS011;49173;43.164;27.786;2023-09-30T04:27:17;8.77;;;3.75;;
63087;SDS011;49173;43.164;27.786;2023-09-30T04:29:43;8.90;;;3.70;;
63087;SDS011;49173;43.164;27.786;2023-09-30T04:32:09;9.25;;;3.85;;
63087;SDS011;49173;43.164;27.786;2023-09-30T04:34:35;10.82;;;3.80;;
63087;SDS011;49173;43.164;27.786;2023-09-30T04:37:01;8.85;;;4.35;;
63087;SDS011;49173;43.164;27.786;2023-09-30T04:39:27;13.95;;;3.97;;
63087;SDS011;49173;43.164;27.786;2023-09-30T04:41:52;8.98;;;3.40;;
63087;SDS011;49173;43.164;27.786;2023-09-30T04:44:20;7.15;;;4.10;;
63087;SDS011;49173;43.164;27.786;2023-09-30T04:46:47;9.77;;;3.88;;
63087;SDS011;49173;43.164;27.786;2023-09-30T04:49:14;8.55;;;3.60;;
63087;SDS011;49173;43.164;27.786;2023-09-30T04:51:40;8.13;;;3.75;;
63087;SDS011;49173;43.164;27.786;2023-09-30T04:54:06;11.55;;;3.80;;
63087;SDS011;49173;43.164;27.786;2023-09-30T04:59:01;15.95;;;4.18;;
63087;SDS011;49173;43.164;27.786;2023-09-30T05:01:28;12.30;;;3.75;;
63087;SDS011;49173;43.164;27.786;2023-09-30T05:03:54;10.15;;;3.92;;
63087;SDS011;49173;43.164;27.786;2023-09-30T05:06:35;10.70;;;3.63;;
63087;SDS011;49173;43.164;27.786;2023-09-30T05:09:01;14.07;;;3.35;;
63087;SDS011;49173;43.164;27.786;2023-09-30T05:11:27;12.70;;;3.92;;
63087;SDS011;49173;43.164;27.786;2023-09-30T05:13:53;8.35;;;3.45;;
63087;SDS011;49173;43.164;27.786;2023-09-30T05:16:20;13.32;;;3.40;;
63087;SDS011;49173;43.164;27.786;2023-09-30T05:18:46;11.50;;;3.60;;
63087;SDS011;49173;43.164;27.786;2023-09-30T05:21:14;10.18;;;3.95;;
63087;SDS011;49173;43.164;27.786;2023-09-30T05:23:40;6.82;;;3.30;;
63087;SDS011;49173;43.164;27.786;2023-09-30T05:26:06;9.73;;;3.58;;
63087;SDS011;49173;43.164;27.786;2023-09-30T05:28:32;10.20;;;3.40;;
63087;SDS011;49173;43.164;27.786;2023-09-30T05:30:58;14.05;;;3.67;;
63087;SDS011;49173;43.164;27.786;2023-09-30T05:33:23;11.50;;;3.63;;
63087;SDS011;49173;43.164;27.786;2023-09-30T05:35:49;13.45;;;3.95;;
63087;SDS011;49173;43.164;27.786;2023-09-30T05:38:15;7.38;;;3.92;;
63087;SDS011;49173;43.164;27.786;2023-09-30T05:40:41;10.27;;;3.85;;
63087;SDS011;49173;43.164;27.786;2023-09-30T05:43:08;10.18;;;3.58;;
63087;SDS011;49173;43.164;27.786;2023-09-30T05:45:39;11.00;;;3.65;;
63087;SDS011;49173;43.164;27.786;2023-09-30T05:48:08;19.33;;;4.38;;
63087;SDS011;49173;43.164;27.786;2023-09-30T05:50:35;9.18;;;3.80;;
63087;SDS011;49173;43.164;27.786;2023-09-30T05:53:01;9.85;;;4.10;;
63087;SDS011;49173;43.164;27.786;2023-09-30T05:58:01;9.32;;;4.15;;
63087;SDS011;49173;43.164;27.786;2023-09-30T06:00:27;18.40;;;4.40;;
63087;SDS011;49173;43.164;27.786;2023-09-30T06:02:55;8.88;;;4.03;;
63087;SDS011;49173;43.164;27.786;2023-09-30T06:08:00;12.43;;;4.30;;
63087;SDS011;49173;43.164;27.786;2023-09-30T06:10:28;20.95;;;4.32;;
63087;SDS011;49173;43.164;27.786;2023-09-30T06:12:55;13.35;;;3.92;;
63087;SDS011;49173;43.164;27.786;2023-09-30T06:15:23;8.45;;;4.13;;
63087;SDS011;49173;43.164;27.786;2023-09-30T06:17:51;13.17;;;4.20;;
63087;SDS011;49173;43.164;27.786;2023-09-30T06:20:21;18.55;;;4.30;;
63087;SDS011;49173;43.164;27.786;2023-09-30T06:22:56;11.90;;;4.60;;
63087;SDS011;49173;43.164;27.786;2023-09-30T06:25:22;10.73;;;4.43;;
63087;SDS011;49173;43.164;27.786;2023-09-30T06:27:53;10.13;;;4.07;;
63087;SDS011;49173;43.164;27.786;2023-09-30T06:30:23;16.30;;;4.55;;
63087;SDS011;49173;43.164;27.786;2023-09-30T06:33:10;18.00;;;4.13;;
63087;SDS011;49173;43.164;27.786;2023-09-30T06:35:38;9.93;;;4.50;;
63087;SDS011;49173;43.164;27.786;2023-09-30T06:38:16;16.88;;;5.10;;
63087;SDS011;49173;43.164;27.786;2023-09-30T06:40:45;15.73;;;4.32;;
63087;SDS011;49173;43.164;27.786;2023-09-30T06:43:14;11.60;;;4.03;;
63087;SDS011;49173;43.164;27.786;2023-09-30T06:48:10;9.05;;;4.43;;
63087;SDS011;49173;43.164;27.786;2023-09-30T06:53:08;11.32;;;4.55;;
63087;SDS011;49173;43.164;27.786;2023-09-30T06:55:36;14.30;;;4.70;;
63087;SDS011;49173;43.164;27.786;2023-09-30T06:58:03;11.40;;;5.03;;
63087;SDS011;49173;43.164;27.786;2023-09-30T07:00:29;12.40;;;5.05;;
63087;SDS011;49173;43.164;27.786;2023-09-30T07:03:04;14.75;;;5.13;;
63087;SDS011;49173;43.164;27.786;2023-09-30T07:05:30;15.93;;;5.22;;
63087;SDS011;49173;43.164;27.786;2023-09-30T07:07:56;18.08;;;5.13;;
63087;SDS011;49173;43.164;27.786;2023-09-30T07:10:22;11.00;;;5.35;;
63087;SDS011;49173;43.164;27.786;2023-09-30T07:12:48;10.45;;;5.20;;
63087;SDS011;49173;43.164;27.786;2023-09-30T07:15:14;13.00;;;5.63;;
63087;SDS011;49173;43.164;27.786;2023-09-30T07:17:42;13.30;;;5.10;;
63087;SDS011;49173;43.164;27.786;2023-09-30T07:20:09;12.13;;;4.75;;
63087;SDS011;49173;43.164;27.786;2023-09-30T07:22:35;12.82;;;4.90;;
63087;SDS011;49173;43.164;27.786;2023-09-30T07:25:01;9.88;;;4.90;;
63087;SDS011;49173;43.164;27.786;2023-09-30T07:27:27;21.77;;;5.10;;
63087;SDS011;49173;43.164;27.786;2023-09-30T07:29:53;14.23;;;4.80;;
63087;SDS011;49173;43.164;27.786;2023-09-30T07:32:19;14.90;;;4.60;;
63087;SDS011;49173;43.164;27.786;2023-09-30T07:34:47;10.60;;;4.47;;
63087;SDS011;49173;43.164;27.786;2023-09-30T07:37:16;14.77;;;4.85;;
63087;SDS011;49173;43.164;27.786;2023-09-30T07:39:44;10.15;;;4.70;;
63087;SDS011;49173;43.164;27.786;2023-09-30T07:42:10;11.10;;;5.10;;
63087;SDS011;49173;43.164;27.786;2023-09-30T07:44:36;12.93;;;4.43;;
63087;SDS011;49173;43.164;27.786;2023-09-30T07:47:03;8.48;;;4.88;;
63087;SDS011;49173;43.164;27.786;2023-09-30T07:49:31;12.43;;;4.70;;
63087;SDS011;49173;43.164;27.786;2023-09-30T07:51:58;15.82;;;4.90;;
63087;SDS011;49173;43.164;27.786;2023-09-30T07:54:24;15.70;;;4.60;;
63087;SDS011;49173;43.164;27.786;2023-09-30T07:56:50;17.20;;;5.32;;
63087;SDS011;49173;43.164;27.786;2023-09-30T07:59:16;16.00;;;5.68;;
63087;SDS011;49173;43.164;27.786;2023-09-30T08:01:43;10.85;;;4.82;;
63087;SDS011;49173;43.164;27.786;2023-09-30T08:04:09;16.27;;;5.00;;
63087;SDS011;49173;43.164;27.786;2023-09-30T08:06:34;9.90;;;4.47;;
63087;SDS011;49173;43.164;27.786;2023-09-30T08:09:00;10.45;;;5.13;;
63087;SDS011;49173;43.164;27.786;2023-09-30T08:11:31;8.90;;;4.13;;
63087;SDS011;49173;43.164;27.786;2023-09-30T08:13:58;14.38;;;4.60;;
63087;SDS011;49173;43.164;27.786;2023-09-30T08:16:24;8.43;;;4.40;;
63087;SDS011;49173;43.164;27.786;2023-09-30T08:18:50;19.10;;;4.28;;
63087;SDS011;49173;43.164;27.786;2023-09-30T08:21:15;7.95;;;4.13;;
63087;SDS011;49173;43.164;27.786;2023-09-30T08:23:41;15.77;;;4.65;;
63087;SDS011;49173;43.164;27.786;2023-09-30T08:26:08;11.65;;;4.15;;
63087;SDS011;49173;43.164;27.786;2023-09-30T08:28:33;14.60;;;4.38;;
63087;SDS011;49173;43.164;27.786;2023-09-30T08:31:03;11.18;;;4.40;;
63087;SDS011;49173;43.164;27.786;2023-09-30T08:33:30;10.88;;;4.28;;
63087;SDS011;49173;43.164;27.786;2023-09-30T08:35:56;9.77;;;4.45;;
63087;SDS011;49173;43.164;27.786;2023-09-30T08:38:36;9.45;;;4.15;;
63087;SDS011;49173;43.164;27.786;2023-09-30T08:41:03;8.07;;;4.50;;
63087;SDS011;49173;43.164;27.786;2023-09-30T08:43:30;8.43;;;4.18;;
63087;SDS011;49173;43.164;27.786;2023-09-30T08:46:00;11.93;;;4.20;;
63087;SDS011;49173;43.164;27.786;2023-09-30T08:48:28;10.93;;;4.30;;
63087;SDS011;49173;43.164;27.786;2023-09-30T08:51:21;11.00;;;3.92;;
63087;SDS011;49173;43.164;27.786;2023-09-30T08:57:00;10.70;;;3.80;;
63087;SDS011;49173;43.164;27.786;2023-09-30T08:59:30;17.95;;;4.47;;
63087;SDS011;49173;43.164;27.786;2023-09-30T09:01:57;10.65;;;3.70;;
63087;SDS011;49173;43.164;27.786;2023-09-30T09:04:24;10.90;;;3.80;;
63087;SDS011;49173;43.164;27.786;2023-09-30T09:06:50;12.32;;;4.20;;
63087;SDS011;49173;43.164;27.786;2023-09-30T09:09:18;12.90;;;4.10;;
63087;SDS011;49173;43.164;27.786;2023-09-30T09:11:47;10.82;;;3.72;;
63087;SDS011;49173;43.164;27.786;2023-09-30T09:16:52;11.40;;;4.13;;
63087;SDS011;49173;43.164;27.786;2023-09-30T09:19:19;9.90;;;3.85;;
63087;SDS011;49173;43.164;27.786;2023-09-30T09:21:59;16.15;;;4.72;;
63087;SDS011;49173;43.164;27.786;2023-09-30T09:24:29;12.40;;;3.72;;
63087;SDS011;49173;43.164;27.786;2023-09-30T09:27:06;17.85;;;3.90;;
63087;SDS011;49173;43.164;27.786;2023-09-30T09:29:36;10.25;;;4.03;;
63087;SDS011;49173;43.164;27.786;2023-09-30T09:32:10;10.13;;;3.78;;
63087;SDS011;49173;43.164;27.786;2023-09-30T09:34:43;10.25;;;4.00;;
63087;SDS011;49173;43.164;27.786;2023-09-30T09:37:19;11.80;;;3.80;;
63087;SDS011;49173;43.164;27.786;2023-09-30T09:39:57;21.02;;;3.90;;
63087;SDS011;49173;43.164;27.786;2023-09-30T09:42:24;11.52;;;3.78;;
63087;SDS011;49173;43.164;27.786;2023-09-30T09:44:55;8.50;;;4.35;;
63087;SDS011;49173;43.164;27.786;2023-09-30T09:47:23;16.17;;;3.85;;
63087;SDS011;49173;43.164;27.786;2023-09-30T09:49:52;18.73;;;4.32;;
63087;SDS011;49173;43.164;27.786;2023-09-30T09:52:20;13.27;;;4.00;;
63087;SDS011;49173;43.164;27.786;2023-09-30T09:54:46;13.38;;;3.90;;
63087;SDS011;49173;43.164;27.786;2023-09-30T09:57:14;15.75;;;3.80;;
63087;SDS011;49173;43.164;27.786;2023-09-30T10:00:08;10.30;;;3.95;;
63087;SDS011;49173;43.164;27.786;2023-09-30T10:02:41;9.18;;;3.95;;
63087;SDS011;49173;43.164;27.786;2023-09-30T10:06:13;18.85;;;3.95;;
63087;SDS011;49173;43.164;27.786;2023-09-30T10:08:46;11.48;;;4.13;;
63087;SDS011;49173;43.164;27.786;2023-09-30T10:12:01;12.73;;;3.97;;
63087;SDS011;49173;43.164;27.786;2023-09-30T10:14:32;16.42;;;4.18;;
63087;SDS011;49173;43.164;27.786;2023-09-30T10:16:59;16.25;;;3.92;;
63087;SDS011;49173;43.164;27.786;2023-09-30T10:19:27;14.03;;;3.87;;
63087;SDS011;49173;43.164;27.786;2023-09-30T10:24:46;13.55;;;3.50;;
63087;SDS011;49173;43.164;27.786;2023-09-30T10:29:59;11.95;;;3.60;;
63087;SDS011;49173;43.164;27.786;2023-09-30T10:35:16;10.57;;;3.45;;
63087;SDS011;49173;43.164;27.786;2023-09-30T10:37:46;10.10;;;3.80;;
63087;SDS011;49173;43.164;27.786;2023-09-30T10:40:32;16.00;;;3.40;;
63087;SDS011;49173;43.164;27.786;2023-09-30T10:42:57;17.13;;;3.92;;
63087;SDS011;49173;43.164;27.786;2023-09-30T10:45:42;17.55;;;3.85;;
63087;SDS011;49173;43.164;27.786;2023-09-30T10:51:01;9.20;;;3.72;;
63087;SDS011;49173;43.164;27.786;2023-09-30T10:53:47;11.07;;;3.20;;
63087;SDS011;49173;43.164;27.786;2023-09-30T10:56:19;11.18;;;3.10;;
63087;SDS011;49173;43.164;27.786;2023-09-30T10:58:49;11.57;;;2.88;;
63087;SDS011;49173;43.164;27.786;2023-09-30T11:01:17;13.88;;;3.35;;
63087;SDS011;49173;43.164;27.786;2023-09-30T11:03:45;9.27;;;3.25;;
63087;SDS011;49173;43.164;27.786;2023-09-30T11:06:14;9.75;;;3.63;;
63087;SDS011;49173;43.164;27.786;2023-09-30T11:08:56;8.90;;;3.70;;
63087;SDS011;49173;43.164;27.786;2023-09-30T11:11:36;11.95;;;3.20;;
63087;SDS011;49173;43.164;27.786;2023-09-30T11:14:19;12.05;;;3.60;;
63087;SDS011;49173;43.164;27.786;2023-09-30T11:17:02;11.43;;;3.38;;
63087;SDS011;49173;43.164;27.786;2023-09-30T11:19:34;10.93;;;4.05;;
63087;SDS011;49173;43.164;27.786;2023-09-30T11:22:15;10.13;;;3.33;;
63087;SDS011;49173;43.164;27.786;2023-09-30T11:24:41;8.88;;;3.30;;
63087;SDS011;49173;43.164;27.786;2023-09-30T11:27:07;23.30;;;4.10;;
63087;SDS011;49173;43.164;27.786;2023-09-30T11:29:34;9.23;;;3.88;;
63087;SDS011;49173;43.164;27.786;2023-09-30T11:32:00;21.00;;;4.07;;
63087;SDS011;49173;43.164;27.786;2023-09-30T11:34:33;9.65;;;3.67;;
63087;SDS011;49173;43.164;27.786;2023-09-30T11:37:03;8.82;;;3.70;;
63087;SDS011;49173;43.164;27.786;2023-09-30T11:39:30;14.85;;;3.78;;
63087;SDS011;49173;43.164;27.786;2023-09-30T11:41:59;14.88;;;3.50;;
63087;SDS011;49173;43.164;27.786;2023-09-30T11:44:26;13.07;;;3.80;;
63087;SDS011;49173;43.164;27.786;2023-09-30T11:52:27;11.57;;;3.78;;
63087;SDS011;49173;43.164;27.786;2023-09-30T11:54:53;9.05;;;3.65;;
63087;SDS011;49173;43.164;27.786;2023-09-30T11:57:19;16.50;;;3.75;;
63087;SDS011;49173;43.164;27.786;2023-09-30T11:59:45;8.27;;;3.65;;
63087;SDS011;49173;43.164;27.786;2023-09-30T12:02:13;19.33;;;3.65;;
63087;SDS011;49173;43.164;27.786;2023-09-30T12:08:15;11.90;;;3.72;;
63087;SDS011;49173;43.164;27.786;2023-09-30T12:11:06;12.80;;;4.18;;
63087;SDS011;49173;43.164;27.786;2023-09-30T12:13:32;10.85;;;3.50;;
63087;SDS011;49173;43.164;27.786;2023-09-30T12:16:05;10.57;;;3.92;;
63087;SDS011;49173;43.164;27.786;2023-09-30T12:18:40;11.10;;;3.78;;
63087;SDS011;49173;43.164;27.786;2023-09-30T12:21:19;13.05;;;3.65;;
63087;SDS011;49173;43.164;27.786;2023-09-30T12:23:47;13.40;;;3.60;;
63087;SDS011;49173;43.164;27.786;2023-09-30T12:26:14;9.88;;;3.75;;
63087;SDS011;49173;43.164;27.786;2023-09-30T12:28:48;8.35;;;3.53;;
63087;SDS011;49173;43.164;27.786;2023-09-30T12:31:14;8.45;;;3.60;;
63087;SDS011;49173;43.164;27.786;2023-09-30T12:33:43;12.05;;;3.83;;
63087;SDS011;49173;43.164;27.786;2023-09-30T12:36:09;13.43;;;4.70;;
63087;SDS011;49173;43.164;27.786;2023-09-30T12:38:40;15.25;;;5.15;;
63087;SDS011;49173;43.164;27.786;2023-09-30T12:41:07;14.13;;;5.22;;
63087;SDS011;49173;43.164;27.786;2023-09-30T12:43:33;10.27;;;5.75;;
63087;SDS011;49173;43.164;27.786;2023-09-30T12:46:13;21.90;;;6.40;;
63087;SDS011;49173;43.164;27.786;2023-09-30T12:48:48;13.75;;;5.65;;
63087;SDS011;49173;43.164;27.786;2023-09-30T12:51:14;13.27;;;3.92;;
63087;SDS011;49173;43.164;27.786;2023-09-30T12:53:42;11.73;;;3.58;;
63087;SDS011;49173;43.164;27.786;2023-09-30T12:56:14;13.20;;;3.65;;
63087;SDS011;49173;43.164;27.786;2023-09-30T12:58:47;15.55;;;3.63;;
63087;SDS011;49173;43.164;27.786;2023-09-30T13:01:18;10.88;;;3.88;;
63087;SDS011;49173;43.164;27.786;2023-09-30T13:06:26;10.48;;;3.47;;
63087;SDS011;49173;43.164;27.786;2023-09-30T13:08:56;15.70;;;3.90;;
63087;SDS011;49173;43.164;27.786;2023-09-30T13:11:25;9.18;;;3.78;;
63087;SDS011;49173;43.164;27.786;2023-09-30T13:13:53;12.52;;;3.35;;
63087;SDS011;49173;43.164;27.786;2023-09-30T13:16:21;16.70;;;3.87;;
63087;SDS011;49173;43.164;27.786;2023-09-30T13:21:17;13.95;;;3.65;;
63087;SDS011;49173;43.164;27.786;2023-09-30T13:23:44;14.05;;;4.65;;
63087;SDS011;49173;43.164;27.786;2023-09-30T13:26:10;10.75;;;3.42;;
63087;SDS011;49173;43.164;27.786;2023-09-30T13:28:36;10.40;;;3.88;;
63087;SDS011;49173;43.164;27.786;2023-09-30T13:31:02;8.25;;;3.40;;
63087;SDS011;49173;43.164;27.786;2023-09-30T13:33:28;17.08;;;3.65;;
63087;SDS011;49173;43.164;27.786;2023-09-30T13:35:53;12.07;;;3.22;;
63087;SDS011;49173;43.164;27.786;2023-09-30T13:38:21;9.48;;;3.63;;
63087;SDS011;49173;43.164;27.786;2023-09-30T13:40:47;15.88;;;4.32;;
63087;SDS011;49173;43.164;27.786;2023-09-30T13:43:15;8.43;;;3.40;;
63087;SDS011;49173;43.164;27.786;2023-09-30T13:45:41;10.45;;;3.72;;
63087;SDS011;49173;43.164;27.786;2023-09-30T13:48:12;15.48;;;4.03;;
63087;SDS011;49173;43.164;27.786;2023-09-30T13:50:43;13.20;;;3.85;;
63087;SDS011;49173;43.164;27.786;2023-09-30T13:53:15;9.10;;;3.40;;
63087;SDS011;49173;43.164;27.786;2023-09-30T13:55:41;11.77;;;3.75;;
63087;SDS011;49173;43.164;27.786;2023-09-30T13:58:07;15.27;;;3.50;;
63087;SDS011;49173;43.164;27.786;2023-09-30T14:00:33;9.13;;;3.45;;
63087;SDS011;49173;43.164;27.786;2023-09-30T14:03:01;15.50;;;4.10;;
63087;SDS011;49173;43.164;27.786;2023-09-30T14:05:28;9.90;;;3.72;;
63087;SDS011;49173;43.164;27.786;2023-09-30T14:07:59;8.20;;;3.60;;
63087;SDS011;49173;43.164;27.786;2023-09-30T14:10:28;14.25;;;3.47;;
63087;SDS011;49173;43.164;27.786;2023-09-30T14:12:54;14.68;;;3.10;;
63087;SDS011;49173;43.164;27.786;2023-09-30T14:15:25;11.13;;;3.17;;
63087;SDS011;49173;43.164;27.786;2023-09-30T14:17:56;11.07;;;3.72;;
63087;SDS011;49173;43.164;27.786;2023-09-30T14:20:30;6.88;;;3.17;;
63087;SDS011;49173;43.164;27.786;2023-09-30T14:23:01;10.88;;;2.97;;
63087;SDS011;49173;43.164;27.786;2023-09-30T14:25:28;9.00;;;3.20;;
63087;SDS011;49173;43.164;27.786;2023-09-30T14:27:55;13.57;;;3.30;;
63087;SDS011;49173;43.164;27.786;2023-09-30T14:30:25;12.38;;;3.20;;
63087;SDS011;49173;43.164;27.786;2023-09-30T14:32:54;12.57;;;3.95;;
63087;SDS011;49173;43.164;27.786;2023-09-30T14:35:21;9.95;;;3.67;;
63087;SDS011;49173;43.164;27.786;2023-09-30T14:37:47;14.23;;;3.20;;
63087;SDS011;49173;43.164;27.786;2023-09-30T14:40:13;5.40;;;3.20;;
63087;SDS011;49173;43.164;27.786;2023-09-30T14:42:39;13.07;;;3.50;;
63087;SDS011;49173;43.164;27.786;2023-09-30T14:45:07;11.13;;;3.92;;
63087;SDS011;49173;43.164;27.786;2023-09-30T14:47:34;10.48;;;3.83;;
63087;SDS011;49173;43.164;27.786;2023-09-30T14:49:59;9.50;;;3.60;;
63087;SDS011;49173;43.164;27.786;2023-09-30T14:54:55;12.55;;;3.55;;
63087;SDS011;49173;43.164;27.786;2023-09-30T14:57:45;19.38;;;8.18;;
63087;SDS011;49173;43.164;27.786;2023-09-30T15:00:16;14.88;;;4.70;;
63087;SDS011;49173;43.164;27.786;2023-09-30T15:02:42;11.88;;;3.75;;
63087;SDS011;49173;43.164;27.786;2023-09-30T15:05:08;13.40;;;3.95;;
63087;SDS011;49173;43.164;27.786;2023-09-30T15:10:04;10.52;;;3.67;;
63087;SDS011;49173;43.164;27.786;2023-09-30T15:12:31;11.68;;;4.20;;
63087;SDS011;49173;43.164;27.786;2023-09-30T15:14:58;16.05;;;4.15;;
63087;SDS011;49173;43.164;27.786;2023-09-30T15:18:20;11.82;;;3.50;;
63087;SDS011;49173;43.164;27.786;2023-09-30T15:20:48;11.07;;;3.90;;
63087;SDS011;49173;43.164;27.786;2023-09-30T15:23:17;23.83;;;4.13;;
63087;SDS011;49173;43.164;27.786;2023-09-30T15:25:48;10.68;;;3.70;;